Flight Track Log - Related Links

Times and Time Zones

All times are in EDT time to prevent confusion due to time zone crossing. See the CSN6629 flight status page for this flight to view local times or setup timezone preferences in your user account.


Time Position Orientation Groundspeed Altitude Reporting Facility
EDT Latitude Longitude Course Direction KTS MPH feet Rate Location/Type
Mon 09:36:00 PM 18.3864 109.4809 38° Northeast  Level Estimated
Mon 09:37:00 PM 18.4699 109.5497 38° Northeast  Level Estimated
Mon 09:38:00 PM 18.5533 109.6185 38° Northeast  Level Estimated
Mon 09:39:00 PM 18.6367 109.6873 38° Northeast  Level Estimated
Mon 09:40:00 PM 18.7201 109.7563 38° Northeast  Level Estimated
Mon 09:41:00 PM 18.8018 109.8239 38° Northeast  Level Estimated
Mon 09:42:00 PM 18.8835 109.8916 38° Northeast  Level Estimated
Mon 09:43:00 PM 18.9652 109.9594 38° Northeast  Level Estimated
Mon 09:44:00 PM 19.0468 110.0272 38° Northeast  Level Estimated
Mon 09:45:00 PM 19.1284 110.0951 38° Northeast  Level Estimated
Mon 09:46:00 PM 19.2100 110.1630 38° Northeast  Level Estimated
Mon 09:47:00 PM 19.2915 110.2311 38° Northeast  Level Estimated
Mon 09:48:00 PM 19.3731 110.2991 38° Northeast  Level Estimated
Mon 09:49:00 PM 19.4546 110.3673 38° Northeast  Level Estimated
Mon 09:50:00 PM 19.5361 110.4355 38° Northeast  Level Estimated
Mon 09:51:00 PM 19.6175 110.5038 38° Northeast  Level Estimated
Mon 09:52:00 PM 19.6989 110.5722 38° Northeast  Level Estimated
Mon 09:53:00 PM 19.7803 110.6406 38° Northeast  Level Estimated
Mon 09:54:00 PM 19.8617 110.7092 38° Northeast  Level Estimated
Mon 09:55:00 PM 19.9431 110.7777 38° Northeast  Level Estimated
Mon 09:56:00 PM 20.0244 110.8464 38° Northeast  Level Estimated
Mon 09:57:00 PM 20.1057 110.9151 38° Northeast  Level Estimated
Mon 09:58:00 PM 20.1870 110.9839 38° Northeast  Level Estimated
Mon 09:59:00 PM 20.2682 111.0527 38° Northeast  Level Estimated
Mon 10:00:00 PM 20.3494 111.1217 39° Northeast  Level Estimated
Mon 10:01:00 PM 20.4306 111.1907 39° Northeast  Level Estimated
Mon 10:02:00 PM 20.5118 111.2598 39° Northeast  Level Estimated
Mon 10:03:00 PM 20.5929 111.3289 39° Northeast  Level Estimated
Mon 10:04:00 PM 20.6740 111.3981 39° Northeast  Level Estimated
Mon 10:05:00 PM 20.7551 111.4675 39° Northeast  Level Estimated
Mon 10:06:00 PM 20.8361 111.5368 39° Northeast  Level Estimated
Mon 10:07:00 PM 20.9172 111.6063 39° Northeast  Level Estimated
Mon 10:08:00 PM 20.9982 111.6758 39° Northeast  Level Estimated
Mon 10:09:00 PM 21.0791 111.7454 39° Northeast  Level Estimated
Mon 10:10:00 PM 21.1601 111.8151 39° Northeast  Level Estimated
Mon 10:11:00 PM 21.2410 111.8848 39° Northeast  Level Estimated
Mon 10:12:00 PM 21.3219 111.9547 39° Northeast  Level Estimated
Mon 10:13:00 PM 21.4027 112.0246 39° Northeast  Level Estimated
Mon 10:14:00 PM 21.4835 112.0946 39° Northeast  Level Estimated
Mon 10:15:00 PM 21.5643 112.1646 39° Northeast  Level Estimated
Mon 10:16:00 PM 21.6451 112.2347 39° Northeast  Level Estimated
Mon 10:17:00 PM 21.7258 112.3050 39° Northeast  Level Estimated
Mon 10:18:00 PM 21.8065 112.3753 39° Northeast  Level Estimated
Mon 10:19:00 PM 21.8872 112.4456 39° Northeast  Level Estimated
Mon 10:20:00 PM 21.9679 112.5161 39° Northeast  Level Estimated
Mon 10:21:00 PM 22.0485 112.5866 39° Northeast  Level Estimated
Mon 10:22:00 PM 22.1291 112.6572 39° Northeast  Level Estimated
Mon 10:23:00 PM 22.2096 112.7280 39° Northeast  Level Estimated
Mon 10:24:00 PM 22.2902 112.7987 39° Northeast  Level Estimated
Mon 10:25:00 PM 22.3707 112.8696 39° Northeast  Level Estimated
Mon 10:26:00 PM 22.4511 112.9405 39° Northeast  Level Estimated
Mon 10:27:00 PM 22.5316 113.0116 39° Northeast  Level Estimated
Mon 10:28:00 PM 22.6120 113.0827 39° Northeast  Level Estimated
Mon 10:29:00 PM 22.6923 113.1538 39° Northeast  Level Estimated
Mon 10:30:00 PM 22.7727 113.2251 39° Northeast  Level Estimated
Mon 10:31:00 PM 22.8530 113.2965 39° Northeast  Level Estimated
Mon 10:32:00 PM 22.9333 113.3679 39° Northeast  Level Estimated
Mon 10:33:00 PM 23.0135 113.4394 39° Northeast  Level Estimated
Mon 10:34:00 PM 23.0937 113.5111 39° Northeast  Level Estimated
Mon 10:35:00 PM 23.1739 113.5827 39° Northeast  Level Estimated
Mon 10:36:00 PM 23.2540 113.6545 39° Northeast  Level Estimated
Mon 10:37:00 PM 23.3342 113.7264 39° Northeast  Level Estimated
Mon 10:38:00 PM 23.4142 113.7984 40° Northeast  Level Estimated
Mon 10:39:00 PM 23.4943 113.8704 40° Northeast  Level Estimated
Mon 10:40:00 PM 23.5743 113.9425 40° Northeast  Level Estimated
Mon 10:41:00 PM 23.6543 114.0147 40° Northeast  Level Estimated
Mon 10:42:00 PM 23.7342 114.0871 40° Northeast  Level Estimated
Mon 10:42:24 PM 22.0051 113.9772 15° North 468 539 33,100  Level FlightAware ADS-B
Mon 10:42:54 PM 22.0675 113.9952 14° North 467 537 33,100  Level FlightAware ADS-B
Mon 10:43:23 PM 22.1277 114.0125 15° North 468 539 33,100 83 Level FlightAware ADS-B
Mon 10:44:06 PM 22.2099 114.0363 15° North 465 535 33,200 130 Climbing FlightAware ADS-B
Mon 10:44:09 PM 22.2243 114.0405 14° North 463 533 33,200  Level FlightAware ADS-B
Mon 10:44:39 PM 22.2870 114.0588 15° North 460 529 33,200 -100 Level FlightAware ADS-B
Mon 10:45:09 PM 22.3488 114.0767 14° North 460 529 33,100 -100 Descending FlightAware ADS-B
Mon 10:45:39 PM 22.4101 114.0937 14° North 459 528 33,100  Level FlightAware ADS-B
Mon 10:46:00 PM 22.4527 114.1103 25° Northeast 469 540 33,100  Level FlightAware ADS-B
Mon 10:46:19 PM 22.4890 114.1346 37° Northeast 477 549 33,100  Level FlightAware ADS-B
Mon 10:46:39 PM 22.5205 114.1667 48° Northeast 482 555 33,100  Level FlightAware ADS-B
Mon 10:47:12 PM 22.5493 114.2050 51° Northeast 482 555 33,100  Level FlightAware ADS-B
Mon 10:49:00 PM 22.7030 114.3202 35° Northeast  Level Estimated
Mon 10:50:00 PM 22.7883 114.3843 35° Northeast  Level Estimated
Mon 10:51:00 PM 22.8736 114.4484 35° Northeast  Level Estimated
Mon 10:52:00 PM 22.9589 114.5127 35° Northeast  Level Estimated
Mon 10:53:00 PM 23.0441 114.5770 35° Northeast  Level Estimated
Mon 10:54:00 PM 23.1294 114.6415 35° Northeast  Level Estimated
Mon 10:55:00 PM 23.2146 114.7060 35° Northeast  Level Estimated
Mon 10:56:00 PM 23.2998 114.7705 35° Northeast  Level Estimated
Mon 10:57:00 PM 23.3849 114.8352 35° Northeast  Level Estimated
Mon 10:58:00 PM 23.4700 114.8999 35° Northeast  Level Estimated
Mon 10:59:00 PM 23.5551 114.9648 35° Northeast  Level Estimated
Mon 11:00:00 PM 23.6402 115.0297 35° Northeast  Level Estimated
Mon 11:01:00 PM 23.7253 115.0947 35° Northeast  Level Estimated
Mon 11:02:00 PM 23.8103 115.1598 35° Northeast  Level Estimated
Mon 11:03:00 PM 23.8953 115.2250 35° Northeast  Level Estimated
Mon 11:04:00 PM 23.9802 115.2902 35° Northeast  Level Estimated
Mon 11:05:00 PM 24.0651 115.3555 35° Northeast  Level Estimated
Mon 11:06:00 PM 24.1501 115.4210 35° Northeast  Level Estimated
Mon 11:07:00 PM 24.2349 115.4865 35° Northeast  Level Estimated
Mon 11:08:00 PM 24.3198 115.5521 35° Northeast  Level Estimated
Mon 11:09:00 PM 24.4046 115.6178 35° Northeast  Level Estimated
Mon 11:10:00 PM 24.4894 115.6836 35° Northeast  Level Estimated
Mon 11:11:00 PM 24.5742 115.7494 35° Northeast  Level Estimated
Mon 11:12:00 PM 24.6589 115.8154 35° Northeast  Level Estimated
Mon 11:13:00 PM 24.7436 115.8814 35° Northeast  Level Estimated
Mon 11:14:00 PM 24.8283 115.9476 35° Northeast  Level Estimated
Mon 11:15:00 PM 24.9129 116.0138 35° Northeast  Level Estimated
Mon 11:16:00 PM 24.9976 116.0801 35° Northeast  Level Estimated
Mon 11:17:00 PM 25.0821 116.1465 35° Northeast  Level Estimated
Mon 11:18:00 PM 25.1667 116.2130 35° Northeast  Level Estimated
Mon 11:19:00 PM 25.2512 116.2796 35° Northeast  Level Estimated
Mon 11:20:00 PM 25.3358 116.3463 35° Northeast  Level Estimated
Mon 11:21:00 PM 25.4202 116.4131 36° Northeast  Level Estimated
Mon 11:22:00 PM 25.5047 116.4799 36° Northeast  Level Estimated
Mon 11:23:00 PM 25.5891 116.5469 36° Northeast  Level Estimated
Mon 11:24:00 PM 25.6735 116.6140 36° Northeast  Level Estimated
Mon 11:25:00 PM 25.7578 116.6811 36° Northeast  Level Estimated
Mon 11:26:00 PM 25.8421 116.7484 36° Northeast  Level Estimated
Mon 11:27:00 PM 25.9264 116.8157 36° Northeast  Level Estimated
Mon 11:28:00 PM 26.0107 116.8832 36° Northeast  Level Estimated
Mon 11:29:00 PM 26.0949 116.9507 36° Northeast  Level Estimated
Mon 11:30:00 PM 26.1791 117.0183 36° Northeast  Level Estimated
Mon 11:31:00 PM 26.2633 117.0861 36° Northeast  Level Estimated
Mon 11:32:00 PM 26.3474 117.1539 36° Northeast  Level Estimated
Mon 11:33:00 PM 26.4315 117.2218 36° Northeast  Level Estimated
Mon 11:34:00 PM 26.5156 117.2899 36° Northeast  Level Estimated
Mon 11:35:00 PM 26.5996 117.3580 36° Northeast  Level Estimated
Mon 11:36:00 PM 26.6836 117.4262 36° Northeast  Level Estimated
Mon 11:37:00 PM 26.7675 117.4946 36° Northeast  Level Estimated
Mon 11:38:00 PM 26.8515 117.5630 36° Northeast  Level Estimated
Mon 11:39:00 PM 26.9354 117.6315 36° Northeast  Level Estimated
Mon 11:40:00 PM 27.0193 117.7002 36° Northeast  Level Estimated
Mon 11:41:00 PM 27.1031 117.7689 36° Northeast  Level Estimated
Mon 11:42:00 PM 27.1869 117.8378 36° Northeast  Level Estimated
Mon 11:43:00 PM 27.2707 117.9067 36° Northeast  Level Estimated
Mon 11:44:00 PM 27.3544 117.9758 36° Northeast  Level Estimated
Mon 11:45:00 PM 27.4381 118.0449 36° Northeast  Level Estimated
Mon 11:46:00 PM 27.5218 118.1142 36° Northeast  Level Estimated
Mon 11:47:00 PM 27.6054 118.1835 36° Northeast  Level Estimated
Mon 11:48:00 PM 27.6890 118.2530 36° Northeast  Level Estimated
Mon 11:49:00 PM 27.7726 118.3226 36° Northeast  Level Estimated
Mon 11:50:00 PM 27.8561 118.3923 36° Northeast  Level Estimated
Mon 11:51:00 PM 27.9396 118.4621 36° Northeast  Level Estimated
Mon 11:52:00 PM 28.0231 118.5320 36° Northeast  Level Estimated
Mon 11:53:00 PM 28.1065 118.6020 37° Northeast  Level Estimated
Mon 11:54:00 PM 28.1899 118.6721 37° Northeast  Level Estimated
Mon 11:55:00 PM 28.2732 118.7423 37° Northeast  Level Estimated
Mon 11:56:00 PM 28.3565 118.8126 37° Northeast  Level Estimated
Mon 11:57:00 PM 28.4398 118.8831 37° Northeast  Level Estimated
Mon 11:58:00 PM 28.5231 118.9536 37° Northeast  Level Estimated
Mon 11:59:00 PM 28.6063 119.0243 37° Northeast  Level Estimated
Tue 12:00:00 AM 28.6894 119.0951 37° Northeast  Level Estimated
Tue 12:01:00 AM 28.7726 119.1660 37° Northeast  Level Estimated
Tue 12:02:00 AM 28.8557 119.2370 37° Northeast  Level Estimated
Tue 12:03:00 AM 28.9387 119.3081 37° Northeast  Level Estimated
Tue 12:04:00 AM 29.0217 119.3793 37° Northeast  Level Estimated
Tue 12:05:00 AM 29.1047 119.4507 37° Northeast  Level Estimated
Tue 12:06:00 AM 29.1877 119.5221 37° Northeast  Level Estimated
Tue 12:07:00 AM 29.2706 119.5937 37° Northeast  Level Estimated
Tue 12:08:00 AM 29.3535 119.6654 37° Northeast  Level Estimated
Tue 12:09:00 AM 29.4363 119.7372 37° Northeast  Level Estimated
Tue 12:10:00 AM 29.5191 119.8092 37° Northeast  Level Estimated
Tue 12:11:00 AM 29.6018 119.8812 37° Northeast  Level Estimated
Tue 12:12:00 AM 29.6845 119.9534 37° Northeast  Level Estimated

Login

Don't have an account? Register now (free) for customized features, flight alerts, and more!